createdAt,value
2023-03-28T11:15:27.097Z,99340.75
2023-03-28T11:18:18.604Z,99340.66
2023-03-28T11:21:05.408Z,99338.78
2023-03-28T11:23:39.174Z,99345.44
2023-03-28T11:26:34.157Z,99347.50
2023-03-28T11:29:40.209Z,99333.56
2023-03-28T11:32:11.254Z,99335.41
2023-03-28T11:34:43.376Z,99337.91
2023-03-28T11:37:19.158Z,99334.56
2023-03-28T11:39:53.059Z,99325.75
2023-03-28T11:42:38.214Z,99331.75
2023-03-28T11:45:14.789Z,99332.78
2023-03-28T11:47:48.921Z,99316.72
2023-03-28T11:50:17.313Z,99321.41
2023-03-28T11:53:07.698Z,99316.75
2023-03-28T11:55:50.320Z,99315.78
2023-03-28T11:58:43.756Z,99309.22
2023-03-28T12:01:23.134Z,99305.41
2023-03-28T12:03:59.077Z,99307.91
2023-03-28T12:06:35.422Z,99300.72
2023-03-28T12:09:19.956Z,99299.16
2023-03-28T12:11:48.283Z,99296.31
2023-03-28T12:14:42.047Z,99306.44
2023-03-28T12:17:24.887Z,99305.69
2023-03-28T12:19:54.096Z,99307.69
2023-03-28T12:22:26.873Z,99297.81
2023-03-28T12:24:59.149Z,99290.19
2023-03-28T12:27:42.591Z,99294.34
2023-03-28T12:30:26.652Z,99288.88
2023-03-28T12:33:06.573Z,99290.25
2023-03-28T12:35:46.920Z,99294.94
2023-03-28T12:38:33.344Z,99302.66
2023-03-28T12:41:21.302Z,99295.06
2023-03-28T12:44:04.633Z,99293.47
2023-03-28T12:46:46.596Z,99292.72
2023-03-28T12:49:37.910Z,99283.91
2023-03-28T12:52:12.222Z,99284.66
2023-03-28T12:55:03.101Z,99282.72
2023-03-28T12:57:42.799Z,99274.03
2023-03-28T13:00:53.724Z,99270.47
2023-03-28T13:03:36.185Z,99267.59
2023-03-28T13:06:26.380Z,99260.75
2023-03-28T13:08:59.992Z,99264.00
2023-03-28T13:11:48.280Z,99264.50
2023-03-28T13:14:30.880Z,99256.59
2023-03-28T13:16:58.181Z,99252.91
2023-03-28T13:19:44.607Z,99259.19
2023-03-28T13:22:32.002Z,99258.56
2023-03-28T13:25:22.754Z,99251.88
2023-03-28T13:27:51.245Z,99256.44
2023-03-28T13:30:20.458Z,99251.88
2023-03-28T13:32:52.749Z,99254.97
2023-03-28T13:35:38.999Z,99239.13
2023-03-28T13:38:22.743Z,99237.53
2023-03-28T13:40:55.110Z,99230.72
2023-03-28T13:43:25.628Z,99239.53
2023-03-28T13:45:54.844Z,99237.97
2023-03-28T13:48:24.870Z,99234.88
2023-03-28T13:50:53.710Z,99238.47
2023-03-28T13:53:20.998Z,99234.59
2023-03-28T13:55:48.406Z,99229.34
2023-03-28T13:58:17.297Z,99228.94
2023-03-28T14:00:47.054Z,99239.09
2023-03-28T14:03:15.261Z,99233.59
2023-03-28T14:05:44.289Z,99227.50
2023-03-28T14:08:15.106Z,99234.41
2023-03-28T14:10:43.692Z,99219.41
2023-03-28T14:13:15.135Z,99230.19
2023-03-28T14:15:43.651Z,99225.13
2023-03-28T14:18:19.123Z,99225.63
2023-03-28T14:20:47.004Z,99232.44
2023-03-28T14:23:30.969Z,99223.38
2023-03-28T14:26:02.464Z,99223.69
2023-03-28T14:28:30.803Z,99226.06
2023-03-28T14:30:58.742Z,99219.03
2023-03-28T14:33:26.404Z,99224.28
2023-03-28T14:36:02.916Z,99219.16
2023-03-28T14:38:38.493Z,99214.84
2023-03-28T14:41:08.946Z,99221.75
2023-03-28T14:43:37.437Z,99212.66
2023-03-28T14:46:06.636Z,99222.97
2023-03-28T14:48:35.352Z,99228.94
2023-03-28T14:51:04.118Z,99222.47
2023-03-28T14:53:53.118Z,99216.94
2023-03-28T14:56:25.603Z,99223.03
2023-03-28T14:58:54.492Z,99218.19
2023-03-28T15:01:25.098Z,99215.72
2023-03-28T15:03:59.943Z,99223.63
2023-03-28T15:06:29.518Z,99233.06
2023-03-28T15:09:04.202Z,99233.69
2023-03-28T15:11:33.962Z,99240.59
2023-03-28T15:14:12.714Z,99241.28
2023-03-28T15:16:42.587Z,99234.44
2023-03-28T15:19:23.016Z,99240.47
2023-03-28T15:21:55.094Z,99234.25
2023-03-28T15:24:23.079Z,99235.47
2023-03-28T15:26:53.406Z,99229.22
2023-03-28T15:29:21.775Z,99233.28
2023-03-28T15:31:49.439Z,99228.50
2023-03-28T15:34:29.270Z,99234.09
2023-03-28T15:37:05.391Z,99231.50
2023-03-28T15:39:34.064Z,99235.72
2023-03-28T15:42:21.514Z,99238.59
2023-03-28T15:44:57.885Z,99224.09
2023-03-28T15:47:27.250Z,99236.97
2023-03-28T15:50:05.007Z,99232.81
2023-03-28T15:52:34.300Z,99239.50
2023-03-28T15:55:02.041Z,99236.88
2023-03-28T15:57:31.145Z,99230.31
2023-03-28T16:00:00.330Z,99244.78
2023-03-28T16:02:28.085Z,99241.66
2023-03-28T16:05:02.949Z,99245.03
2023-03-28T16:07:46.663Z,99241.22
2023-03-28T16:10:18.199Z,99242.06
2023-03-28T16:13:16.914Z,99222.22
2023-03-28T16:16:18.825Z,99241.06
2023-03-28T16:18:55.175Z,99243.88
2023-03-28T16:21:22.733Z,99245.03
2023-03-28T16:23:49.940Z,99240.53
2023-03-28T16:26:17.238Z,99252.06
2023-03-28T16:28:45.013Z,99251.91
2023-03-28T16:31:15.824Z,99261.69
2023-03-28T16:33:43.239Z,99249.72
2023-03-28T16:36:12.300Z,99257.34
2023-03-28T16:38:39.905Z,99254.13
2023-03-28T16:41:07.457Z,99255.31
2023-03-28T16:43:35.038Z,99263.09
2023-03-28T16:46:02.921Z,99266.31
2023-03-28T16:48:32.419Z,99267.13
2023-03-28T16:51:04.945Z,99265.06
2023-03-28T16:53:36.244Z,99263.09
2023-03-28T16:56:04.582Z,99267.31
2023-03-28T16:58:32.286Z,99269.25
2023-03-28T17:01:14.040Z,99267.47
2023-03-28T17:03:42.428Z,99267.81
2023-03-28T17:06:09.975Z,99263.13
2023-03-28T17:08:37.864Z,99266.03
2023-03-28T17:11:10.060Z,99269.59
2023-03-28T17:13:38.590Z,99266.69
2023-03-28T17:16:07.891Z,99259.41
2023-03-28T17:18:36.166Z,99256.66
2023-03-28T17:21:07.935Z,99267.66
2023-03-28T17:23:57.206Z,99271.53
2023-03-28T17:26:24.833Z,99270.56
2023-03-28T17:28:53.251Z,99268.72
2023-03-28T17:31:21.171Z,99268.38
2023-03-28T17:33:49.181Z,99286.00
2023-03-28T17:36:21.432Z,99276.63
2023-03-28T17:38:50.093Z,99284.03
2023-03-28T17:41:17.923Z,99277.91
2023-03-28T17:43:45.715Z,99277.41
2023-03-28T17:46:13.033Z,99277.41
2023-03-28T17:48:41.111Z,99263.69
2023-03-28T17:51:10.232Z,99269.50
2023-03-28T17:53:41.692Z,99273.03
2023-03-28T17:56:09.795Z,99262.06
2023-03-28T17:58:37.947Z,99268.03
2023-03-28T18:01:12.907Z,99268.84
2023-03-28T18:03:41.156Z,99266.91
2023-03-28T18:06:35.395Z,99271.75
2023-03-28T18:09:03.344Z,99272.25
2023-03-28T18:11:31.883Z,99271.94
2023-03-28T18:13:59.381Z,99272.44
2023-03-28T18:16:27.821Z,99276.63
2023-03-28T18:18:55.481Z,99278.75
2023-03-28T18:21:22.938Z,99281.81
2023-03-28T18:23:50.533Z,99269.41
2023-03-28T18:26:17.762Z,99283.78
2023-03-28T18:28:45.480Z,99289.63
2023-03-28T18:31:17.589Z,99287.03
2023-03-28T18:33:45.351Z,99284.75
2023-03-28T18:36:13.973Z,99285.25
2023-03-28T18:38:43.406Z,99283.19
2023-03-28T18:41:12.734Z,99281.84
2023-03-28T18:43:41.509Z,99276.69
2023-03-28T18:46:10.130Z,99284.31
2023-03-28T18:48:38.840Z,99271.22
2023-03-28T18:51:09.013Z,99272.16
2023-03-28T18:53:39.187Z,99279.13
2023-03-28T18:56:08.166Z,99278.31
2023-03-28T18:58:37.323Z,99275.41
2023-03-28T19:01:06.690Z,99278.31
2023-03-28T19:03:40.618Z,99277.81
2023-03-28T19:06:09.529Z,99270.88
2023-03-28T19:08:37.397Z,99263.88
2023-03-28T19:11:07.922Z,99274.53
2023-03-28T19:13:35.574Z,99279.69
2023-03-28T19:16:07.878Z,99265.13
2023-03-28T19:18:38.928Z,99261.41
2023-03-28T19:21:07.309Z,99259.59
2023-03-28T19:23:36.886Z,99266.34
2023-03-28T19:26:05.709Z,99263.59
2023-03-28T19:28:33.301Z,99261.63
2023-03-28T19:31:02.050Z,99264.19
2023-03-28T19:33:29.963Z,99265.94
2023-03-28T19:35:57.810Z,99267.38
2023-03-28T19:38:26.115Z,99274.75
2023-03-28T19:40:57.872Z,99274.25
2023-03-28T19:43:25.575Z,99276.34
2023-03-28T19:45:53.216Z,99274.53
2023-03-28T19:48:20.533Z,99275.50
2023-03-28T19:50:49.151Z,99268.84
2023-03-28T19:53:16.361Z,99267.69
2023-03-28T19:55:43.854Z,99270.13
2023-03-28T19:58:11.058Z,99272.09
2023-03-28T20:00:38.429Z,99279.53
2023-03-28T20:03:05.888Z,99277.59
2023-03-28T20:05:33.150Z,99271.34
2023-03-28T20:08:01.458Z,99268.28
2023-03-28T20:10:28.637Z,99267.16
2023-03-28T20:12:56.237Z,99266.56
2023-03-28T20:15:23.842Z,99261.72
2023-03-28T20:17:51.248Z,99258.53
2023-03-28T20:20:19.824Z,99259.00
2023-03-28T20:22:47.094Z,99263.72
2023-03-28T20:25:14.986Z,99258.09
2023-03-28T20:27:42.972Z,99267.28
2023-03-28T20:30:11.257Z,99265.53
2023-03-28T20:32:38.676Z,99267.28
2023-03-28T20:35:06.927Z,99262.28
2023-03-28T20:37:35.014Z,99260.03
2023-03-28T20:40:10.620Z,99268.88
2023-03-28T20:42:41.150Z,99264.06
2023-03-28T20:45:09.448Z,99262.88
2023-03-28T20:47:39.493Z,99261.44
2023-03-28T20:50:08.986Z,99253.31
2023-03-28T20:52:37.551Z,99251.22
2023-03-28T20:55:05.832Z,99252.31
2023-03-28T20:57:36.225Z,99252.50
2023-03-28T21:00:07.226Z,99249.25
2023-03-28T21:02:36.397Z,99251.84
2023-03-28T21:05:04.854Z,99250.06
2023-03-28T21:07:32.222Z,99248.16
2023-03-28T21:09:59.988Z,99241.84
2023-03-28T21:12:27.839Z,99239.25
2023-03-28T21:14:58.302Z,99233.44
2023-03-28T21:17:26.626Z,99236.19
2023-03-28T21:19:54.258Z,99245.19
2023-03-28T21:22:22.495Z,99234.69
2023-03-28T21:24:50.936Z,99232.56
2023-03-28T21:27:18.365Z,99232.72
2023-03-28T21:29:45.704Z,99231.41
2023-03-28T21:32:14.705Z,99232.53
2023-03-28T21:34:43.233Z,99232.69
2023-03-28T21:37:12.090Z,99227.53
2023-03-28T21:39:39.731Z,99227.34
2023-03-28T21:42:07.468Z,99228.66
2023-03-28T21:44:35.019Z,99222.91
2023-03-28T21:47:02.436Z,99216.16
2023-03-28T21:49:30.736Z,99213.94
2023-03-28T21:51:58.194Z,99217.94
2023-03-28T21:54:25.928Z,99214.59
2023-03-28T21:56:53.613Z,99221.50
2023-03-28T21:59:21.087Z,99216.34
2023-03-28T22:01:48.402Z,99211.50
2023-03-28T22:04:16.003Z,99206.47
2023-03-28T22:06:43.350Z,99210.94
2023-03-28T22:09:10.853Z,99213.63
2023-03-28T22:11:39.896Z,99210.34
2023-03-28T22:14:07.568Z,99201.25
2023-03-28T22:16:37.722Z,99198.63
2023-03-28T22:19:05.979Z,99194.56
2023-03-28T22:21:33.358Z,99194.06
2023-03-28T22:24:02.675Z,99188.91
2023-03-28T22:26:30.884Z,99192.47
2023-03-28T22:28:58.726Z,99184.84
2023-03-28T22:31:26.756Z,99189.34
2023-03-28T22:33:54.645Z,99181.28
2023-03-28T22:36:22.057Z,99168.97
2023-03-28T22:38:50.259Z,99172.69
2023-03-28T22:41:17.623Z,99171.38
2023-03-28T22:43:45.175Z,99183.59
2023-03-28T22:46:12.943Z,99178.06
2023-03-28T22:48:40.393Z,99181.63
2023-03-28T22:51:12.035Z,99170.34
2023-03-28T22:53:40.187Z,99177.72
2023-03-28T22:56:08.642Z,99172.22
2023-03-28T22:58:37.353Z,99174.94
2023-03-28T23:01:04.701Z,99162.50
2023-03-28T23:03:32.554Z,99166.06
2023-03-28T23:06:06.992Z,99177.28
2023-03-28T23:08:35.017Z,99167.97
2023-03-28T23:11:02.462Z,99165.38
2023-03-28T23:13:29.933Z,99164.09
2023-03-28T23:15:57.662Z,99160.28
2023-03-28T23:18:24.904Z,99164.84
2023-03-28T23:20:52.438Z,99163.41
2023-03-28T23:23:19.606Z,99162.31
2023-03-28T23:25:47.471Z,99153.47
2023-03-28T23:28:15.126Z,99148.16
2023-03-28T23:30:42.350Z,99153.50
2023-03-28T23:33:09.806Z,99156.00
2023-03-28T23:35:37.427Z,99153.03
2023-03-28T23:38:05.415Z,99142.59
2023-03-28T23:40:32.657Z,99150.72
2023-03-28T23:43:00.275Z,99153.47
2023-03-28T23:45:27.699Z,99144.00
2023-03-28T23:47:55.027Z,99144.66
2023-03-28T23:50:22.445Z,99141.16
2023-03-28T23:52:50.492Z,99143.44
2023-03-28T23:55:17.760Z,99124.41
2023-03-28T23:57:45.297Z,99125.56
